sensor_id;sensor_type;location;lat;lon;timestamp;temperature;humidity
74873;HTU21D;68776;44.762;37.698;2023-07-02T00:00:04;20.99;78.56
74873;HTU21D;68776;44.762;37.698;2023-07-02T00:01:11;20.99;78.53
74873;HTU21D;68776;44.762;37.698;2023-07-02T00:02:12;20.98;78.53
74873;HTU21D;68776;44.762;37.698;2023-07-02T00:03:13;20.96;78.51
74873;HTU21D;68776;44.762;37.698;2023-07-02T00:04:15;20.99;78.45
74873;HTU21D;68776;44.762;37.698;2023-07-02T00:05:17;20.98;78.43
74873;HTU21D;68776;44.762;37.698;2023-07-02T00:06:18;20.99;78.39
74873;HTU21D;68776;44.762;37.698;2023-07-02T00:07:19;20.98;78.36
74873;HTU21D;68776;44.762;37.698;2023-07-02T00:08:24;20.96;78.37
74873;HTU21D;68776;44.762;37.698;2023-07-02T00:09:25;20.94;78.37
74873;HTU21D;68776;44.762;37.698;2023-07-02T00:10:25;20.94;78.36
74873;HTU21D;68776;44.762;37.698;2023-07-02T00:11:26;20.94;78.35
74873;HTU21D;68776;44.762;37.698;2023-07-02T00:12:27;20.94;78.34
74873;HTU21D;68776;44.762;37.698;2023-07-02T00:13:28;20.92;78.34
74873;HTU21D;68776;44.762;37.698;2023-07-02T00:14:29;20.90;78.36
74873;HTU21D;68776;44.762;37.698;2023-07-02T00:15:30;20.92;78.35
74873;HTU21D;68776;44.762;37.698;2023-07-02T00:16:31;20.90;78.35
74873;HTU21D;68776;44.762;37.698;2023-07-02T00:17:32;20.89;78.38
74873;HTU21D;68776;44.762;37.698;2023-07-02T00:18:33;20.87;78.41
74873;HTU21D;68776;44.762;37.698;2023-07-02T00:19:34;20.87;78.42
74873;HTU21D;68776;44.762;37.698;2023-07-02T00:20:35;20.85;78.44
74873;HTU21D;68776;44.762;37.698;2023-07-02T00:21:38;20.86;78.47
74873;HTU21D;68776;44.762;37.698;2023-07-02T00:22:40;20.84;78.45
74873;HTU21D;68776;44.762;37.698;2023-07-02T00:23:44;20.83;78.46
74873;HTU21D;68776;44.762;37.698;2023-07-02T00:24:45;20.83;78.49
74873;HTU21D;68776;44.762;37.698;2023-07-02T00:25:46;20.81;78.50
74873;HTU21D;68776;44.762;37.698;2023-07-02T00:26:46;20.79;78.51
74873;HTU21D;68776;44.762;37.698;2023-07-02T00:27:48;20.78;78.52
74873;HTU21D;68776;44.762;37.698;2023-07-02T00:28:49;20.78;78.53
74873;HTU21D;68776;44.762;37.698;2023-07-02T00:29:50;20.78;78.54
74873;HTU21D;68776;44.762;37.698;2023-07-02T00:30:51;20.77;78.56
74873;HTU21D;68776;44.762;37.698;2023-07-02T00:31:52;20.76;78.55
74873;HTU21D;68776;44.762;37.698;2023-07-02T00:32:53;20.76;78.58
74873;HTU21D;68776;44.762;37.698;2023-07-02T00:33:54;20.75;78.60
74873;HTU21D;68776;44.762;37.698;2023-07-02T00:34:56;20.75;78.61
74873;HTU21D;68776;44.762;37.698;2023-07-02T00:35:57;20.73;78.63
74873;HTU21D;68776;44.762;37.698;2023-07-02T00:36:58;20.72;78.65
74873;HTU21D;68776;44.762;37.698;2023-07-02T00:38:00;20.71;78.67
74873;HTU21D;68776;44.762;37.698;2023-07-02T00:39:01;20.70;78.77
74873;HTU21D;68776;44.762;37.698;2023-07-02T00:40:03;20.68;78.82
74873;HTU21D;68776;44.762;37.698;2023-07-02T00:41:05;20.65;78.86
74873;HTU21D;68776;44.762;37.698;2023-07-02T00:42:06;20.63;78.93
74873;HTU21D;68776;44.762;37.698;2023-07-02T00:43:08;20.41;78.96
74873;HTU21D;68776;44.762;37.698;2023-07-02T00:44:13;20.61;79.02
74873;HTU21D;68776;44.762;37.698;2023-07-02T00:45:15;20.59;79.06
74873;HTU21D;68776;44.762;37.698;2023-07-02T00:46:17;20.58;79.17
74873;HTU21D;68776;44.762;37.698;2023-07-02T00:47:20;20.58;79.18
74873;HTU21D;68776;44.762;37.698;2023-07-02T00:48:21;20.57;79.19
74873;HTU21D;68776;44.762;37.698;2023-07-02T00:49:23;20.57;79.21
74873;HTU21D;68776;44.762;37.698;2023-07-02T00:50:24;20.54;79.28
74873;HTU21D;68776;44.762;37.698;2023-07-02T00:51:27;20.54;79.30
74873;HTU21D;68776;44.762;37.698;2023-07-02T00:52:28;20.54;79.33
74873;HTU21D;68776;44.762;37.698;2023-07-02T00:53:29;20.53;79.31
74873;HTU21D;68776;44.762;37.698;2023-07-02T00:54:30;20.54;79.29
74873;HTU21D;68776;44.762;37.698;2023-07-02T00:55:31;20.55;79.30
74873;HTU21D;68776;44.762;37.698;2023-07-02T00:56:32;20.55;79.28
74873;HTU21D;68776;44.762;37.698;2023-07-02T00:57:33;20.56;79.29
74873;HTU21D;68776;44.762;37.698;2023-07-02T00:58:38;20.54;79.28
74873;HTU21D;68776;44.762;37.698;2023-07-02T00:59:40;20.53;79.29
74873;HTU21D;68776;44.762;37.698;2023-07-02T01:00:42;20.53;79.30
74873;HTU21D;68776;44.762;37.698;2023-07-02T01:01:44;20.50;79.33
74873;HTU21D;68776;44.762;37.698;2023-07-02T01:02:54;20.48;79.35
74873;HTU21D;68776;44.762;37.698;2023-07-02T01:04:04;20.47;79.42
74873;HTU21D;68776;44.762;37.698;2023-07-02T01:05:05;20.46;79.47
74873;HTU21D;68776;44.762;37.698;2023-07-02T01:06:06;20.45;79.46
74873;HTU21D;68776;44.762;37.698;2023-07-02T01:07:07;20.45;79.46
74873;HTU21D;68776;44.762;37.698;2023-07-02T01:08:10;20.45;79.45
74873;HTU21D;68776;44.762;37.698;2023-07-02T01:09:15;20.44;79.47
74873;HTU21D;68776;44.762;37.698;2023-07-02T01:10:16;20.43;79.47
74873;HTU21D;68776;44.762;37.698;2023-07-02T01:11:17;20.43;79.48
74873;HTU21D;68776;44.762;37.698;2023-07-02T01:12:20;20.42;79.51
74873;HTU21D;68776;44.762;37.698;2023-07-02T01:13:24;20.40;79.56
74873;HTU21D;68776;44.762;37.698;2023-07-02T01:14:28;20.40;79.61
74873;HTU21D;68776;44.762;37.698;2023-07-02T01:15:32;20.39;79.68
74873;HTU21D;68776;44.762;37.698;2023-07-02T01:16:34;20.36;79.74
74873;HTU21D;68776;44.762;37.698;2023-07-02T01:17:35;20.36;79.79
74873;HTU21D;68776;44.762;37.698;2023-07-02T01:18:43;20.37;79.82
74873;HTU21D;68776;44.762;37.698;2023-07-02T01:19:52;20.37;79.86
74873;HTU21D;68776;44.762;37.698;2023-07-02T01:20:54;20.35;79.93
74873;HTU21D;68776;44.762;37.698;2023-07-02T01:21:55;20.34;79.96
74873;HTU21D;68776;44.762;37.698;2023-07-02T01:22:57;20.35;79.97
74873;HTU21D;68776;44.762;37.698;2023-07-02T01:24:04;20.34;79.99
74873;HTU21D;68776;44.762;37.698;2023-07-02T01:25:08;20.34;80.00
74873;HTU21D;68776;44.762;37.698;2023-07-02T01:26:11;20.35;80.00
74873;HTU21D;68776;44.762;37.698;2023-07-02T01:27:13;20.34;79.98
74873;HTU21D;68776;44.762;37.698;2023-07-02T01:28:15;20.33;80.00
74873;HTU21D;68776;44.762;37.698;2023-07-02T01:29:17;20.32;80.07
74873;HTU21D;68776;44.762;37.698;2023-07-02T01:30:19;20.31;80.09
74873;HTU21D;68776;44.762;37.698;2023-07-02T01:31:20;20.32;80.08
74873;HTU21D;68776;44.762;37.698;2023-07-02T01:32:25;20.32;80.05
74873;HTU21D;68776;44.762;37.698;2023-07-02T01:33:26;20.32;80.01
74873;HTU21D;68776;44.762;37.698;2023-07-02T01:34:27;20.32;80.00
74873;HTU21D;68776;44.762;37.698;2023-07-02T01:35:29;20.34;79.95
74873;HTU21D;68776;44.762;37.698;2023-07-02T01:36:30;20.34;79.92
74873;HTU21D;68776;44.762;37.698;2023-07-02T01:37:31;20.35;79.89
74873;HTU21D;68776;44.762;37.698;2023-07-02T01:38:37;20.37;79.84
74873;HTU21D;68776;44.762;37.698;2023-07-02T01:39:39;20.35;79.82
74873;HTU21D;68776;44.762;37.698;2023-07-02T01:40:40;20.34;79.83
74873;HTU21D;68776;44.762;37.698;2023-07-02T01:41:55;20.34;79.84
74873;HTU21D;68776;44.762;37.698;2023-07-02T01:42:56;20.35;79.86
74873;HTU21D;68776;44.762;37.698;2023-07-02T01:43:57;20.33;79.84
74873;HTU21D;68776;44.762;37.698;2023-07-02T01:44:58;20.32;79.90
74873;HTU21D;68776;44.762;37.698;2023-07-02T01:45:59;20.29;79.99
74873;HTU21D;68776;44.762;37.698;2023-07-02T01:47:02;20.30;80.11
74873;HTU21D;68776;44.762;37.698;2023-07-02T01:48:04;20.28;80.23
74873;HTU21D;68776;44.762;37.698;2023-07-02T01:49:05;20.28;80.33
74873;HTU21D;68776;44.762;37.698;2023-07-02T01:50:06;20.29;80.43
74873;HTU21D;68776;44.762;37.698;2023-07-02T01:51:07;20.27;80.52
74873;HTU21D;68776;44.762;37.698;2023-07-02T01:52:08;20.30;80.59
74873;HTU21D;68776;44.762;37.698;2023-07-02T01:53:09;20.30;80.62
74873;HTU21D;68776;44.762;37.698;2023-07-02T01:54:10;20.31;80.65
74873;HTU21D;68776;44.762;37.698;2023-07-02T01:55:11;20.33;80.64
74873;HTU21D;68776;44.762;37.698;2023-07-02T01:56:12;20.34;80.60
74873;HTU21D;68776;44.762;37.698;2023-07-02T01:57:13;20.37;80.57
74873;HTU21D;68776;44.762;37.698;2023-07-02T01:58:14;20.40;80.56
74873;HTU21D;68776;44.762;37.698;2023-07-02T01:59:15;20.39;80.60
74873;HTU21D;68776;44.762;37.698;2023-07-02T02:00:17;20.41;80.61
74873;HTU21D;68776;44.762;37.698;2023-07-02T02:01:18;20.42;80.56
74873;HTU21D;68776;44.762;37.698;2023-07-02T02:02:19;20.46;80.50
74873;HTU21D;68776;44.762;37.698;2023-07-02T02:03:22;20.47;80.43
74873;HTU21D;68776;44.762;37.698;2023-07-02T02:04:23;20.49;80.41
74873;HTU21D;68776;44.762;37.698;2023-07-02T02:05:24;20.50;80.36
74873;HTU21D;68776;44.762;37.698;2023-07-02T02:06:25;20.53;80.30
74873;HTU21D;68776;44.762;37.698;2023-07-02T02:07:26;20.54;80.28
74873;HTU21D;68776;44.762;37.698;2023-07-02T02:08:27;20.53;80.33
74873;HTU21D;68776;44.762;37.698;2023-07-02T02:09:28;20.55;80.34
74873;HTU21D;68776;44.762;37.698;2023-07-02T02:10:30;20.55;80.33
74873;HTU21D;68776;44.762;37.698;2023-07-02T02:11:33;20.57;80.31
74873;HTU21D;68776;44.762;37.698;2023-07-02T02:12:35;20.57;80.35
74873;HTU21D;68776;44.762;37.698;2023-07-02T02:13:41;20.56;80.36
74873;HTU21D;68776;44.762;37.698;2023-07-02T02:14:42;20.57;80.35
74873;HTU21D;68776;44.762;37.698;2023-07-02T02:15:43;20.58;80.37
74873;HTU21D;68776;44.762;37.698;2023-07-02T02:16:44;20.58;80.38
74873;HTU21D;68776;44.762;37.698;2023-07-02T02:17:48;20.61;80.32
74873;HTU21D;68776;44.762;37.698;2023-07-02T02:18:49;20.63;80.26
74873;HTU21D;68776;44.762;37.698;2023-07-02T02:19:52;20.65;80.20
74873;HTU21D;68776;44.762;37.698;2023-07-02T02:20:53;20.68;80.15
74873;HTU21D;68776;44.762;37.698;2023-07-02T02:21:54;20.70;80.12
74873;HTU21D;68776;44.762;37.698;2023-07-02T02:22:55;20.71;80.10
74873;HTU21D;68776;44.762;37.698;2023-07-02T02:23:56;20.72;80.07
74873;HTU21D;68776;44.762;37.698;2023-07-02T02:24:57;20.72;80.05
74873;HTU21D;68776;44.762;37.698;2023-07-02T02:25:58;20.71;80.04
74873;HTU21D;68776;44.762;37.698;2023-07-02T02:26:59;20.72;80.06
74873;HTU21D;68776;44.762;37.698;2023-07-02T02:28:00;20.73;80.05
74873;HTU21D;68776;44.762;37.698;2023-07-02T02:29:01;20.73;80.11
74873;HTU21D;68776;44.762;37.698;2023-07-02T02:30:03;20.72;80.15
74873;HTU21D;68776;44.762;37.698;2023-07-02T02:31:07;20.73;80.15
74873;HTU21D;68776;44.762;37.698;2023-07-02T02:32:09;20.74;80.11
74873;HTU21D;68776;44.762;37.698;2023-07-02T02:33:10;20.74;80.07
74873;HTU21D;68776;44.762;37.698;2023-07-02T02:34:11;20.77;80.05
74873;HTU21D;68776;44.762;37.698;2023-07-02T02:35:13;20.78;80.02
74873;HTU21D;68776;44.762;37.698;2023-07-02T02:36:14;20.78;80.02
74873;HTU21D;68776;44.762;37.698;2023-07-02T02:37:15;20.80;79.98
74873;HTU21D;68776;44.762;37.698;2023-07-02T02:38:16;20.80;79.91
74873;HTU21D;68776;44.762;37.698;2023-07-02T02:39:17;20.81;79.88
74873;HTU21D;68776;44.762;37.698;2023-07-02T02:40:18;20.84;79.84
74873;HTU21D;68776;44.762;37.698;2023-07-02T02:41:19;20.86;79.79
74873;HTU21D;68776;44.762;37.698;2023-07-02T02:42:25;20.86;79.80
74873;HTU21D;68776;44.762;37.698;2023-07-02T02:43:26;20.87;79.78
74873;HTU21D;68776;44.762;37.698;2023-07-02T02:44:27;20.90;79.75
74873;HTU21D;68776;44.762;37.698;2023-07-02T02:45:28;20.91;79.72
74873;HTU21D;68776;44.762;37.698;2023-07-02T02:46:31;20.92;79.72
74873;HTU21D;68776;44.762;37.698;2023-07-02T02:47:32;20.93;79.71
74873;HTU21D;68776;44.762;37.698;2023-07-02T02:48:33;20.95;79.67
74873;HTU21D;68776;44.762;37.698;2023-07-02T02:49:36;20.95;79.61
74873;HTU21D;68776;44.762;37.698;2023-07-02T02:50:37;20.99;79.56
74873;HTU21D;68776;44.762;37.698;2023-07-02T02:51:44;21.00;79.53
74873;HTU21D;68776;44.762;37.698;2023-07-02T02:52:45;21.02;79.48
74873;HTU21D;68776;44.762;37.698;2023-07-02T02:53:46;21.03;79.41
74873;HTU21D;68776;44.762;37.698;2023-07-02T02:54:47;21.04;79.43
74873;HTU21D;68776;44.762;37.698;2023-07-02T02:55:48;21.05;79.49
74873;HTU21D;68776;44.762;37.698;2023-07-02T02:56:49;21.07;79.42
74873;HTU21D;68776;44.762;37.698;2023-07-02T02:57:50;21.11;79.35
74873;HTU21D;68776;44.762;37.698;2023-07-02T02:58:51;21.16;79.26
74873;HTU21D;68776;44.762;37.698;2023-07-02T02:59:52;21.22;79.19
74873;HTU21D;68776;44.762;37.698;2023-07-02T03:00:53;21.24;79.11
74873;HTU21D;68776;44.762;37.698;2023-07-02T03:01:54;21.27;79.14
74873;HTU21D;68776;44.762;37.698;2023-07-02T03:02:55;21.29;79.15
74873;HTU21D;68776;44.762;37.698;2023-07-02T03:03:58;21.33;79.09
74873;HTU21D;68776;44.762;37.698;2023-07-02T03:04:59;21.36;79.04
74873;HTU21D;68776;44.762;37.698;2023-07-02T03:06:04;21.40;79.07
74873;HTU21D;68776;44.762;37.698;2023-07-02T03:07:07;21.42;79.11
74873;HTU21D;68776;44.762;37.698;2023-07-02T03:08:08;21.45;79.11
74873;HTU21D;68776;44.762;37.698;2023-07-02T03:09:09;21.50;79.01
74873;HTU21D;68776;44.762;37.698;2023-07-02T03:10:11;21.57;78.88
74873;HTU21D;68776;44.762;37.698;2023-07-02T03:11:12;21.59;78.79
74873;HTU21D;68776;44.762;37.698;2023-07-02T03:12:13;21.63;78.75
74873;HTU21D;68776;44.762;37.698;2023-07-02T03:13:14;21.67;78.67
74873;HTU21D;68776;44.762;37.698;2023-07-02T03:14:15;21.69;78.61
74873;HTU21D;68776;44.762;37.698;2023-07-02T03:15:16;21.73;78.59
74873;HTU21D;68776;44.762;37.698;2023-07-02T03:16:18;21.77;78.57
74873;HTU21D;68776;44.762;37.698;2023-07-02T03:17:19;21.81;78.48
74873;HTU21D;68776;44.762;37.698;2023-07-02T03:18:20;21.84;78.34
74873;HTU21D;68776;44.762;37.698;2023-07-02T03:19:22;21.92;78.23
74873;HTU21D;68776;44.762;37.698;2023-07-02T03:20:23;21.96;78.18
74873;HTU21D;68776;44.762;37.698;2023-07-02T03:21:23;21.99;78.11
74873;HTU21D;68776;44.762;37.698;2023-07-02T03:22:24;22.08;77.97
74873;HTU21D;68776;44.762;37.698;2023-07-02T03:23:25;22.16;77.85
74873;HTU21D;68776;44.762;37.698;2023-07-02T03:24:26;22.21;77.81
74873;HTU21D;68776;44.762;37.698;2023-07-02T03:25:27;22.23;77.73
74873;HTU21D;68776;44.762;37.698;2023-07-02T03:26:28;22.29;77.68
74873;HTU21D;68776;44.762;37.698;2023-07-02T03:27:29;22.29;77.61
74873;HTU21D;68776;44.762;37.698;2023-07-02T03:28:30;22.33;77.58
74873;HTU21D;68776;44.762;37.698;2023-07-02T03:29:36;22.32;77.55
74873;HTU21D;68776;44.762;37.698;2023-07-02T03:30:38;22.35;77.60
74873;HTU21D;68776;44.762;37.698;2023-07-02T03:31:39;22.37;77.63
74873;HTU21D;68776;44.762;37.698;2023-07-02T03:32:40;22.38;77.63
74873;HTU21D;68776;44.762;37.698;2023-07-02T03:33:41;22.38;77.58
74873;HTU21D;68776;44.762;37.698;2023-07-02T03:34:42;22.41;77.57
74873;HTU21D;68776;44.762;37.698;2023-07-02T03:35:43;22.43;77.56
74873;HTU21D;68776;44.762;37.698;2023-07-02T03:36:44;0.00;77.63
74873;HTU21D;68776;44.762;37.698;2023-07-02T03:37:45;22.47;77.66
74873;HTU21D;68776;44.762;37.698;2023-07-02T03:38:47;22.49;77.65
74873;HTU21D;68776;44.762;37.698;2023-07-02T03:39:48;22.50;77.69
74873;HTU21D;68776;44.762;37.698;2023-07-02T03:40:48;22.53;77.66
74873;HTU21D;68776;44.762;37.698;2023-07-02T03:41:49;22.56;77.59
74873;HTU21D;68776;44.762;37.698;2023-07-02T03:42:50;22.60;77.48
74873;HTU21D;68776;44.762;37.698;2023-07-02T03:43:51;22.61;77.35
74873;HTU21D;68776;44.762;37.698;2023-07-02T03:44:52;22.65;77.34
74873;HTU21D;68776;44.762;37.698;2023-07-02T03:45:53;22.68;77.34
74873;HTU21D;68776;44.762;37.698;2023-07-02T03:46:54;22.69;77.38
74873;HTU21D;68776;44.762;37.698;2023-07-02T03:47:55;22.71;77.41
74873;HTU21D;68776;44.762;37.698;2023-07-02T03:48:56;22.73;77.44
74873;HTU21D;68776;44.762;37.698;2023-07-02T03:49:57;22.71;77.51
74873;HTU21D;68776;44.762;37.698;2023-07-02T03:50:58;22.75;77.53
74873;HTU21D;68776;44.762;37.698;2023-07-02T03:51:59;22.76;77.51
74873;HTU21D;68776;44.762;37.698;2023-07-02T03:53:00;22.79;77.51
74873;HTU21D;68776;44.762;37.698;2023-07-02T03:54:01;22.82;77.42
74873;HTU21D;68776;44.762;37.698;2023-07-02T03:55:02;22.84;77.37
74873;HTU21D;68776;44.762;37.698;2023-07-02T03:56:03;22.86;77.36
74873;HTU21D;68776;44.762;37.698;2023-07-02T03:57:05;22.90;77.27
74873;HTU21D;68776;44.762;37.698;2023-07-02T03:58:06;22.92;77.23
74873;HTU21D;68776;44.762;37.698;2023-07-02T03:59:07;22.93;77.12
74873;HTU21D;68776;44.762;37.698;2023-07-02T04:00:08;22.94;77.10
74873;HTU21D;68776;44.762;37.698;2023-07-02T04:01:15;22.97;77.05
74873;HTU21D;68776;44.762;37.698;2023-07-02T04:02:16;22.96;77.08
74873;HTU21D;68776;44.762;37.698;2023-07-02T04:03:17;22.95;82.86
74873;HTU21D;68776;44.762;37.698;2023-07-02T04:04:18;22.98;77.05
74873;HTU21D;68776;44.762;37.698;2023-07-02T04:05:19;22.99;76.99
74873;HTU21D;68776;44.762;37.698;2023-07-02T04:06:20;23.00;76.93
74873;HTU21D;68776;44.762;37.698;2023-07-02T04:07:21;22.99;76.87
74873;HTU21D;68776;44.762;37.698;2023-07-02T04:08:22;23.01;76.86
74873;HTU21D;68776;44.762;37.698;2023-07-02T04:09:25;23.00;76.89
74873;HTU21D;68776;44.762;37.698;2023-07-02T04:10:26;22.98;76.92
74873;HTU21D;68776;44.762;37.698;2023-07-02T04:11:27;22.99;76.92
74873;HTU21D;68776;44.762;37.698;2023-07-02T04:12:29;23.02;76.86
74873;HTU21D;68776;44.762;37.698;2023-07-02T04:13:30;23.03;76.83
74873;HTU21D;68776;44.762;37.698;2023-07-02T04:14:31;23.05;76.79
74873;HTU21D;68776;44.762;37.698;2023-07-02T04:15:33;23.06;76.76
74873;HTU21D;68776;44.762;37.698;2023-07-02T04:16:33;23.05;76.74
74873;HTU21D;68776;44.762;37.698;2023-07-02T04:17:34;23.06;76.71
74873;HTU21D;68776;44.762;37.698;2023-07-02T04:18:35;23.08;76.64
74873;HTU21D;68776;44.762;37.698;2023-07-02T04:19:36;23.08;76.58
74873;HTU21D;68776;44.762;37.698;2023-07-02T04:20:38;23.09;76.57
74873;HTU21D;68776;44.762;37.698;2023-07-02T04:21:39;23.06;76.61
74873;HTU21D;68776;44.762;37.698;2023-07-02T04:22:40;23.03;76.63
74873;HTU21D;68776;44.762;37.698;2023-07-02T04:23:41;23.05;76.61
74873;HTU21D;68776;44.762;37.698;2023-07-02T04:24:42;23.03;76.57
74873;HTU21D;68776;44.762;37.698;2023-07-02T04:25:43;23.05;76.48
74873;HTU21D;68776;44.762;37.698;2023-07-02T04:26:44;23.07;76.34
74873;HTU21D;68776;44.762;37.698;2023-07-02T04:27:45;23.05;76.36
74873;HTU21D;68776;44.762;37.698;2023-07-02T04:28:46;23.02;76.30
74873;HTU21D;68776;44.762;37.698;2023-07-02T04:29:47;23.05;76.28
74873;HTU21D;68776;44.762;37.698;2023-07-02T04:30:48;23.02;76.26
74873;HTU21D;68776;44.762;37.698;2023-07-02T04:31:50;23.02;76.24
74873;HTU21D;68776;44.762;37.698;2023-07-02T04:32:51;23.03;76.17
74873;HTU21D;68776;44.762;37.698;2023-07-02T04:33:53;23.02;76.15
74873;HTU21D;68776;44.762;37.698;2023-07-02T04:34:54;23.02;76.18
74873;HTU21D;68776;44.762;37.698;2023-07-02T04:35:55;22.99;76.20
74873;HTU21D;68776;44.762;37.698;2023-07-02T04:36:55;22.98;76.20
74873;HTU21D;68776;44.762;37.698;2023-07-02T04:37:56;23.01;76.11
74873;HTU21D;68776;44.762;37.698;2023-07-02T04:38:58;23.10;75.86
74873;HTU21D;68776;44.762;37.698;2023-07-02T04:39:58;23.16;75.73
74873;HTU21D;68776;44.762;37.698;2023-07-02T04:41:00;23.17;75.72
74873;HTU21D;68776;44.762;37.698;2023-07-02T04:42:05;23.16;75.73
74873;HTU21D;68776;44.762;37.698;2023-07-02T04:43:06;23.17;75.75
74873;HTU21D;68776;44.762;37.698;2023-07-02T04:44:07;23.15;75.79
74873;HTU21D;68776;44.762;37.698;2023-07-02T04:45:08;23.13;75.81
74873;HTU21D;68776;44.762;37.698;2023-07-02T04:46:09;23.14;75.77
74873;HTU21D;68776;44.762;37.698;2023-07-02T04:47:12;23.13;75.73
74873;HTU21D;68776;44.762;37.698;2023-07-02T04:48:13;23.15;75.70
74873;HTU21D;68776;44.762;37.698;2023-07-02T04:49:14;23.16;75.67
74873;HTU21D;68776;44.762;37.698;2023-07-02T04:50:16;23.16;75.67
74873;HTU21D;68776;44.762;37.698;2023-07-02T04:51:17;23.17;75.63
74873;HTU21D;68776;44.762;37.698;2023-07-02T04:52:18;23.20;75.60
74873;HTU21D;68776;44.762;37.698;2023-07-02T04:53:19;23.24;75.50
74873;HTU21D;68776;44.762;37.698;2023-07-02T04:54:21;23.28;75.34
74873;HTU21D;68776;44.762;37.698;2023-07-02T04:55:22;23.31;75.21
74873;HTU21D;68776;44.762;37.698;2023-07-02T04:56:23;23.31;75.16
74873;HTU21D;68776;44.762;37.698;2023-07-02T04:57:23;23.34;75.14
74873;HTU21D;68776;44.762;37.698;2023-07-02T04:58:24;23.35;75.15
74873;HTU21D;68776;44.762;37.698;2023-07-02T04:59:25;23.38;75.08
74873;HTU21D;68776;44.762;37.698;2023-07-02T05:00:26;23.41;74.96
74873;HTU21D;68776;44.762;37.698;2023-07-02T05:01:28;23.47;74.80
74873;HTU21D;68776;44.762;37.698;2023-07-02T05:02:29;23.58;74.57
74873;HTU21D;68776;44.762;37.698;2023-07-02T05:03:29;23.71;74.25
74873;HTU21D;68776;44.762;37.698;2023-07-02T05:04:30;23.79;74.09
74873;HTU21D;68776;44.762;37.698;2023-07-02T05:05:31;23.86;73.91
74873;HTU21D;68776;44.762;37.698;2023-07-02T05:06:32;23.99;73.66
74873;HTU21D;68776;44.762;37.698;2023-07-02T05:07:33;24.08;73.51
74873;HTU21D;68776;44.762;37.698;2023-07-02T05:08:34;24.16;73.39
74873;HTU21D;68776;44.762;37.698;2023-07-02T05:09:37;24.29;73.09
74873;HTU21D;68776;44.762;37.698;2023-07-02T05:10:37;24.41;72.76
74873;HTU21D;68776;44.762;37.698;2023-07-02T05:11:38;24.53;72.46
74873;HTU21D;68776;44.762;37.698;2023-07-02T05:12:40;24.64;72.20
74873;HTU21D;68776;44.762;37.698;2023-07-02T05:13:41;24.70;72.12
74873;HTU21D;68776;44.762;37.698;2023-07-02T05:14:42;24.69;72.09
74873;HTU21D;68776;44.762;37.698;2023-07-02T05:15:43;24.65;72.15
74873;HTU21D;68776;44.762;37.698;2023-07-02T05:16:44;24.65;72.11
74873;HTU21D;68776;44.762;37.698;2023-07-02T05:17:45;24.70;72.02
74873;HTU21D;68776;44.762;37.698;2023-07-02T05:18:46;24.68;71.97
74873;HTU21D;68776;44.762;37.698;2023-07-02T05:19:47;24.73;71.87
74873;HTU21D;68776;44.762;37.698;2023-07-02T05:20:48;24.84;71.58
74873;HTU21D;68776;44.762;37.698;2023-07-02T05:21:48;24.91;71.35
74873;HTU21D;68776;44.762;37.698;2023-07-02T05:22:49;24.92;71.27
74873;HTU21D;68776;44.762;37.698;2023-07-02T05:23:50;24.89;71.29
74873;HTU21D;68776;44.762;37.698;2023-07-02T05:24:51;24.89;71.35
74873;HTU21D;68776;44.762;37.698;2023-07-02T05:25:52;24.89;71.34
74873;HTU21D;68776;44.762;37.698;2023-07-02T05:26:53;24.88;71.35
74873;HTU21D;68776;44.762;37.698;2023-07-02T05:27:54;24.86;71.35
74873;HTU21D;68776;44.762;37.698;2023-07-02T05:28:55;24.85;71.37
74873;HTU21D;68776;44.762;37.698;2023-07-02T05:29:56;24.87;71.30
74873;HTU21D;68776;44.762;37.698;2023-07-02T05:30:57;24.92;71.20
74873;HTU21D;68776;44.762;37.698;2023-07-02T05:31:58;24.92;71.13
74873;HTU21D;68776;44.762;37.698;2023-07-02T05:32:59;24.95;71.05
74873;HTU21D;68776;44.762;37.698;2023-07-02T05:34:00;25.01;70.93
74873;HTU21D;68776;44.762;37.698;2023-07-02T05:35:00;25.15;70.68
74873;HTU21D;68776;44.762;37.698;2023-07-02T05:36:01;25.33;70.16
74873;HTU21D;68776;44.762;37.698;2023-07-02T05:37:02;25.40;69.87
74873;HTU21D;68776;44.762;37.698;2023-07-02T05:38:03;25.52;69.61
74873;HTU21D;68776;44.762;37.698;2023-07-02T05:39:04;25.65;69.29
74873;HTU21D;68776;44.762;37.698;2023-07-02T05:40:06;25.69;69.16
74873;HTU21D;68776;44.762;37.698;2023-07-02T05:41:07;25.74;69.01
74873;HTU21D;68776;44.762;37.698;2023-07-02T05:42:08;25.81;68.80
74873;HTU21D;68776;44.762;37.698;2023-07-02T05:43:09;25.83;68.62
74873;HTU21D;68776;44.762;37.698;2023-07-02T05:44:10;25.91;68.44
74873;HTU21D;68776;44.762;37.698;2023-07-02T05:45:11;26.01;68.24
74873;HTU21D;68776;44.762;37.698;2023-07-02T05:46:12;26.15;67.84
74873;HTU21D;68776;44.762;37.698;2023-07-02T05:47:14;26.28;67.44
74873;HTU21D;68776;44.762;37.698;2023-07-02T05:48:15;26.28;67.34
74873;HTU21D;68776;44.762;37.698;2023-07-02T05:49:16;26.26;67.37
74873;HTU21D;68776;44.762;37.698;2023-07-02T05:50:17;26.28;67.24
74873;HTU21D;68776;44.762;37.698;2023-07-02T05:51:21;26.30;67.15
74873;HTU21D;68776;44.762;37.698;2023-07-02T05:52:22;26.26;67.23
74873;HTU21D;68776;44.762;37.698;2023-07-02T05:53:23;26.21;67.32
74873;HTU21D;68776;44.762;37.698;2023-07-02T05:54:24;26.19;67.43
74873;HTU21D;68776;44.762;37.698;2023-07-02T05:55:25;26.16;67.52
74873;HTU21D;68776;44.762;37.698;2023-07-02T05:56:26;26.11;67.57
74873;HTU21D;68776;44.762;37.698;2023-07-02T05:57:27;26.22;67.36
74873;HTU21D;68776;44.762;37.698;2023-07-02T05:58:28;26.23;67.16
74873;HTU21D;68776;44.762;37.698;2023-07-02T05:59:30;26.16;67.29
74873;HTU21D;68776;44.762;37.698;2023-07-02T06:00:31;26.03;67.47
74873;HTU21D;68776;44.762;37.698;2023-07-02T06:01:32;25.97;67.58
74873;HTU21D;68776;44.762;37.698;2023-07-02T06:02:33;25.95;67.59
74873;HTU21D;68776;44.762;37.698;2023-07-02T06:03:34;25.95;67.58
74873;HTU21D;68776;44.762;37.698;2023-07-02T06:04:35;25.97;67.53
74873;HTU21D;68776;44.762;37.698;2023-07-02T06:05:36;26.02;67.36
74873;HTU21D;68776;44.762;37.698;2023-07-02T06:06:37;26.04;67.26
74873;HTU21D;68776;44.762;37.698;2023-07-02T06:07:38;26.06;67.13
74873;HTU21D;68776;44.762;37.698;2023-07-02T06:08:39;26.07;67.03
74873;HTU21D;68776;44.762;37.698;2023-07-02T06:09:40;26.09;66.93
74873;HTU21D;68776;44.762;37.698;2023-07-02T06:10:42;26.13;66.78
74873;HTU21D;68776;44.762;37.698;2023-07-02T06:11:43;26.28;66.43
74873;HTU21D;68776;44.762;37.698;2023-07-02T06:12:44;26.43;66.04
74873;HTU21D;68776;44.762;37.698;2023-07-02T06:13:45;26.62;65.57
74873;HTU21D;68776;44.762;37.698;2023-07-02T06:14:46;26.79;65.14
74873;HTU21D;68776;44.762;37.698;2023-07-02T06:15:47;26.97;64.74
74873;HTU21D;68776;44.762;37.698;2023-07-02T06:16:47;27.21;64.28